sensor_id;sensor_type;location;lat;lon;timestamp;temperature;humidity
70368;DHT22;57789;53.868;10.728;2023-04-24T00:00:55;12.80;99.90
70368;DHT22;57789;53.868;10.728;2023-04-24T00:03:26;12.90;99.90
70368;DHT22;57789;53.868;10.728;2023-04-24T00:05:55;12.90;99.90
70368;DHT22;57789;53.868;10.728;2023-04-24T00:08:21;12.90;99.90
70368;DHT22;57789;53.868;10.728;2023-04-24T00:10:49;13.00;99.90
70368;DHT22;57789;53.868;10.728;2023-04-24T00:13:15;13.00;99.90
70368;DHT22;57789;53.868;10.728;2023-04-24T00:15:40;13.00;99.90
70368;DHT22;57789;53.868;10.728;2023-04-24T00:18:06;13.10;99.90
70368;DHT22;57789;53.868;10.728;2023-04-24T00:20:32;13.10;99.90
70368;DHT22;57789;53.868;10.728;2023-04-24T00:22:58;13.20;99.90
70368;DHT22;57789;53.868;10.728;2023-04-24T00:25:24;13.20;99.90
70368;DHT22;57789;53.868;10.728;2023-04-24T00:27:50;13.20;99.90
70368;DHT22;57789;53.868;10.728;2023-04-24T00:30:16;13.20;99.90
70368;DHT22;57789;53.868;10.728;2023-04-24T00:32:42;13.20;99.90
70368;DHT22;57789;53.868;10.728;2023-04-24T00:35:08;13.20;99.90
70368;DHT22;57789;53.868;10.728;2023-04-24T00:37:34;13.10;99.90
70368;DHT22;57789;53.868;10.728;2023-04-24T00:40:01;13.00;99.90
70368;DHT22;57789;53.868;10.728;2023-04-24T00:42:28;12.90;99.90
70368;DHT22;57789;53.868;10.728;2023-04-24T00:44:56;12.80;99.90
70368;DHT22;57789;53.868;10.728;2023-04-24T00:47:22;12.70;99.90
70368;DHT22;57789;53.868;10.728;2023-04-24T00:49:48;12.60;99.90
70368;DHT22;57789;53.868;10.728;2023-04-24T00:52:14;12.60;99.90
70368;DHT22;57789;53.868;10.728;2023-04-24T00:54:43;12.60;99.90
70368;DHT22;57789;53.868;10.728;2023-04-24T00:57:10;12.50;99.90
70368;DHT22;57789;53.868;10.728;2023-04-24T00:59:39;12.50;99.90
70368;DHT22;57789;53.868;10.728;2023-04-24T01:02:07;12.50;99.90
70368;DHT22;57789;53.868;10.728;2023-04-24T01:04:33;12.40;99.90
70368;DHT22;57789;53.868;10.728;2023-04-24T01:06:58;12.40;99.90
70368;DHT22;57789;53.868;10.728;2023-04-24T01:09:25;12.40;99.90
70368;DHT22;57789;53.868;10.728;2023-04-24T01:11:51;12.40;99.90
70368;DHT22;57789;53.868;10.728;2023-04-24T01:14:17;12.30;99.90
70368;DHT22;57789;53.868;10.728;2023-04-24T01:16:43;12.20;99.90
70368;DHT22;57789;53.868;10.728;2023-04-24T01:19:10;12.10;99.90
70368;DHT22;57789;53.868;10.728;2023-04-24T01:21:37;12.00;99.90
70368;DHT22;57789;53.868;10.728;2023-04-24T01:24:05;11.90;99.90
70368;DHT22;57789;53.868;10.728;2023-04-24T01:26:31;11.80;99.90
70368;DHT22;57789;53.868;10.728;2023-04-24T01:28:57;11.70;99.90
70368;DHT22;57789;53.868;10.728;2023-04-24T01:31:23;11.60;99.90
70368;DHT22;57789;53.868;10.728;2023-04-24T01:33:50;11.60;99.90
70368;DHT22;57789;53.868;10.728;2023-04-24T01:36:16;11.60;99.90
70368;DHT22;57789;53.868;10.728;2023-04-24T01:38:42;11.50;99.90
70368;DHT22;57789;53.868;10.728;2023-04-24T01:41:08;11.50;99.90
70368;DHT22;57789;53.868;10.728;2023-04-24T01:43:34;11.50;99.90
70368;DHT22;57789;53.868;10.728;2023-04-24T01:46:00;11.50;99.90
70368;DHT22;57789;53.868;10.728;2023-04-24T01:48:26;11.50;99.90
70368;DHT22;57789;53.868;10.728;2023-04-24T01:50:51;11.50;99.90
70368;DHT22;57789;53.868;10.728;2023-04-24T01:53:17;11.50;99.90
70368;DHT22;57789;53.868;10.728;2023-04-24T01:55:43;11.40;99.90
70368;DHT22;57789;53.868;10.728;2023-04-24T01:58:09;11.40;99.90
70368;DHT22;57789;53.868;10.728;2023-04-24T02:00:35;11.40;99.90
70368;DHT22;57789;53.868;10.728;2023-04-24T02:03:00;11.40;99.90
70368;DHT22;57789;53.868;10.728;2023-04-24T02:05:27;11.40;99.90
70368;DHT22;57789;53.868;10.728;2023-04-24T02:07:53;11.40;99.90
70368;DHT22;57789;53.868;10.728;2023-04-24T02:10:19;11.40;99.90
70368;DHT22;57789;53.868;10.728;2023-04-24T02:12:45;11.30;99.90
70368;DHT22;57789;53.868;10.728;2023-04-24T02:15:11;11.40;99.90
70368;DHT22;57789;53.868;10.728;2023-04-24T02:17:38;11.40;99.90
70368;DHT22;57789;53.868;10.728;2023-04-24T02:20:05;11.40;99.90
70368;DHT22;57789;53.868;10.728;2023-04-24T02:22:31;11.40;99.90
70368;DHT22;57789;53.868;10.728;2023-04-24T02:24:56;11.40;99.90
70368;DHT22;57789;53.868;10.728;2023-04-24T02:27:22;11.40;99.90
70368;DHT22;57789;53.868;10.728;2023-04-24T02:29:48;11.40;99.90
70368;DHT22;57789;53.868;10.728;2023-04-24T02:32:14;11.30;99.90
70368;DHT22;57789;53.868;10.728;2023-04-24T02:34:41;11.30;99.90
70368;DHT22;57789;53.868;10.728;2023-04-24T02:37:06;11.30;99.90
70368;DHT22;57789;53.868;10.728;2023-04-24T02:39:33;11.20;99.90
70368;DHT22;57789;53.868;10.728;2023-04-24T02:42:00;11.20;99.90
70368;DHT22;57789;53.868;10.728;2023-04-24T02:44:27;11.20;99.90
70368;DHT22;57789;53.868;10.728;2023-04-24T02:46:52;11.10;99.90
70368;DHT22;57789;53.868;10.728;2023-04-24T02:49:18;11.10;99.90
70368;DHT22;57789;53.868;10.728;2023-04-24T02:51:44;11.10;99.90
70368;DHT22;57789;53.868;10.728;2023-04-24T02:54:10;11.00;99.90
70368;DHT22;57789;53.868;10.728;2023-04-24T02:56:36;11.00;99.90
70368;DHT22;57789;53.868;10.728;2023-04-24T02:59:02;10.90;99.90
70368;DHT22;57789;53.868;10.728;2023-04-24T03:01:28;10.90;99.90
70368;DHT22;57789;53.868;10.728;2023-04-24T03:03:54;10.90;99.90
70368;DHT22;57789;53.868;10.728;2023-04-24T03:06:19;10.80;99.90
70368;DHT22;57789;53.868;10.728;2023-04-24T03:08:46;10.80;99.90
70368;DHT22;57789;53.868;10.728;2023-04-24T03:11:12;10.80;99.90
70368;DHT22;57789;53.868;10.728;2023-04-24T03:13:37;10.70;99.90
70368;DHT22;57789;53.868;10.728;2023-04-24T03:16:03;10.70;99.90
70368;DHT22;57789;53.868;10.728;2023-04-24T03:18:29;10.70;99.90
70368;DHT22;57789;53.868;10.728;2023-04-24T03:20:56;10.60;99.90
70368;DHT22;57789;53.868;10.728;2023-04-24T03:23:22;10.60;99.90
70368;DHT22;57789;53.868;10.728;2023-04-24T03:25:48;10.60;99.90
70368;DHT22;57789;53.868;10.728;2023-04-24T03:28:14;10.60;99.90
70368;DHT22;57789;53.868;10.728;2023-04-24T03:30:40;10.50;99.90
70368;DHT22;57789;53.868;10.728;2023-04-24T03:33:05;10.60;99.90
70368;DHT22;57789;53.868;10.728;2023-04-24T03:35:31;10.60;99.90
70368;DHT22;57789;53.868;10.728;2023-04-24T03:37:57;10.50;99.90
70368;DHT22;57789;53.868;10.728;2023-04-24T03:40:23;10.50;99.90
70368;DHT22;57789;53.868;10.728;2023-04-24T03:42:48;10.50;99.90
70368;DHT22;57789;53.868;10.728;2023-04-24T03:45:14;10.50;99.90
70368;DHT22;57789;53.868;10.728;2023-04-24T03:47:40;10.50;99.90
70368;DHT22;57789;53.868;10.728;2023-04-24T03:50:07;10.60;99.90
70368;DHT22;57789;53.868;10.728;2023-04-24T03:52:33;10.50;99.90
70368;DHT22;57789;53.868;10.728;2023-04-24T03:54:59;10.50;99.90
70368;DHT22;57789;53.868;10.728;2023-04-24T03:57:24;10.50;99.90
70368;DHT22;57789;53.868;10.728;2023-04-24T03:59:50;10.50;99.90
70368;DHT22;57789;53.868;10.728;2023-04-24T04:02:16;10.50;99.90
70368;DHT22;57789;53.868;10.728;2023-04-24T04:04:42;10.40;99.90
70368;DHT22;57789;53.868;10.728;2023-04-24T04:07:08;10.40;99.90
70368;DHT22;57789;53.868;10.728;2023-04-24T04:09:34;10.40;99.90
70368;DHT22;57789;53.868;10.728;2023-04-24T04:11:59;10.50;99.90
70368;DHT22;57789;53.868;10.728;2023-04-24T04:14:26;10.40;99.90
70368;DHT22;57789;53.868;10.728;2023-04-24T04:16:52;10.40;99.90
70368;DHT22;57789;53.868;10.728;2023-04-24T04:19:18;10.50;99.90
70368;DHT22;57789;53.868;10.728;2023-04-24T04:21:45;10.50;99.90
70368;DHT22;57789;53.868;10.728;2023-04-24T04:24:11;10.40;99.90
70368;DHT22;57789;53.868;10.728;2023-04-24T04:26:38;10.40;99.90
70368;DHT22;57789;53.868;10.728;2023-04-24T04:29:04;10.50;99.90
70368;DHT22;57789;53.868;10.728;2023-04-24T04:31:29;10.40;99.90
70368;DHT22;57789;53.868;10.728;2023-04-24T04:33:56;10.40;99.90
70368;DHT22;57789;53.868;10.728;2023-04-24T04:36:21;10.40;99.90
70368;DHT22;57789;53.868;10.728;2023-04-24T04:38:49;10.30;99.90
70368;DHT22;57789;53.868;10.728;2023-04-24T04:41:15;10.30;99.90
70368;DHT22;57789;53.868;10.728;2023-04-24T04:43:42;10.30;99.90
70368;DHT22;57789;53.868;10.728;2023-04-24T04:46:08;10.30;99.90
70368;DHT22;57789;53.868;10.728;2023-04-24T04:48:36;10.30;99.90
70368;DHT22;57789;53.868;10.728;2023-04-24T04:51:02;10.30;99.90
70368;DHT22;57789;53.868;10.728;2023-04-24T04:53:27;10.20;99.90
70368;DHT22;57789;53.868;10.728;2023-04-24T04:55:53;10.30;99.90
70368;DHT22;57789;53.868;10.728;2023-04-24T04:58:19;10.30;99.90
70368;DHT22;57789;53.868;10.728;2023-04-24T05:00:45;10.30;99.90
70368;DHT22;57789;53.868;10.728;2023-04-24T05:03:11;10.30;99.90
70368;DHT22;57789;53.868;10.728;2023-04-24T05:05:37;10.30;99.90
70368;DHT22;57789;53.868;10.728;2023-04-24T05:08:07;10.40;99.90
70368;DHT22;57789;53.868;10.728;2023-04-24T05:10:33;10.30;99.90
70368;DHT22;57789;53.868;10.728;2023-04-24T05:12:59;10.40;99.90
70368;DHT22;57789;53.868;10.728;2023-04-24T05:15:25;10.40;99.90
70368;DHT22;57789;53.868;10.728;2023-04-24T05:17:53;10.50;99.90
70368;DHT22;57789;53.868;10.728;2023-04-24T05:20:19;10.50;99.90
70368;DHT22;57789;53.868;10.728;2023-04-24T05:22:44;10.60;99.90
70368;DHT22;57789;53.868;10.728;2023-04-24T05:25:10;10.60;99.90
70368;DHT22;57789;53.868;10.728;2023-04-24T05:27:38;10.70;99.90
70368;DHT22;57789;53.868;10.728;2023-04-24T05:30:04;10.80;99.90
70368;DHT22;57789;53.868;10.728;2023-04-24T05:32:30;10.90;99.90
70368;DHT22;57789;53.868;10.728;2023-04-24T05:34:56;10.90;99.90
70368;DHT22;57789;53.868;10.728;2023-04-24T05:37:22;11.00;99.90
70368;DHT22;57789;53.868;10.728;2023-04-24T05:39:47;11.00;99.90
70368;DHT22;57789;53.868;10.728;2023-04-24T05:42:13;11.00;99.90
70368;DHT22;57789;53.868;10.728;2023-04-24T05:44:39;11.10;99.90
70368;DHT22;57789;53.868;10.728;2023-04-24T05:47:05;11.10;99.90
70368;DHT22;57789;53.868;10.728;2023-04-24T05:49:31;11.20;99.90
70368;DHT22;57789;53.868;10.728;2023-04-24T05:51:57;11.30;99.90
70368;DHT22;57789;53.868;10.728;2023-04-24T05:54:23;11.30;99.90
70368;DHT22;57789;53.868;10.728;2023-04-24T05:56:49;11.30;99.90
70368;DHT22;57789;53.868;10.728;2023-04-24T05:59:16;11.30;99.90
70368;DHT22;57789;53.868;10.728;2023-04-24T06:01:42;11.30;99.90
70368;DHT22;57789;53.868;10.728;2023-04-24T06:04:07;11.30;99.90
70368;DHT22;57789;53.868;10.728;2023-04-24T06:06:35;11.30;99.90
70368;DHT22;57789;53.868;10.728;2023-04-24T06:09:02;11.30;99.90
70368;DHT22;57789;53.868;10.728;2023-04-24T06:11:28;11.40;99.90
70368;DHT22;57789;53.868;10.728;2023-04-24T06:13:54;11.50;99.90
70368;DHT22;57789;53.868;10.728;2023-04-24T06:16:20;11.50;99.90
70368;DHT22;57789;53.868;10.728;2023-04-24T06:18:45;11.60;99.90
70368;DHT22;57789;53.868;10.728;2023-04-24T06:21:12;11.70;99.90
70368;DHT22;57789;53.868;10.728;2023-04-24T06:23:38;11.80;99.90
70368;DHT22;57789;53.868;10.728;2023-04-24T06:26:04;11.90;99.90
70368;DHT22;57789;53.868;10.728;2023-04-24T06:28:30;11.90;99.90
70368;DHT22;57789;53.868;10.728;2023-04-24T06:30:56;12.00;99.90
70368;DHT22;57789;53.868;10.728;2023-04-24T06:33:21;12.00;99.90
70368;DHT22;57789;53.868;10.728;2023-04-24T06:35:47;12.10;99.90
70368;DHT22;57789;53.868;10.728;2023-04-24T06:38:13;12.10;99.90
70368;DHT22;57789;53.868;10.728;2023-04-24T06:40:39;12.10;99.90
70368;DHT22;57789;53.868;10.728;2023-04-24T06:43:05;12.20;99.90
70368;DHT22;57789;53.868;10.728;2023-04-24T06:45:31;12.30;99.90
70368;DHT22;57789;53.868;10.728;2023-04-24T06:47:57;12.40;99.90
70368;DHT22;57789;53.868;10.728;2023-04-24T06:50:23;12.40;99.90
70368;DHT22;57789;53.868;10.728;2023-04-24T06:52:49;12.40;99.90
70368;DHT22;57789;53.868;10.728;2023-04-24T06:55:15;12.50;99.90
70368;DHT22;57789;53.868;10.728;2023-04-24T06:57:43;12.50;99.90
70368;DHT22;57789;53.868;10.728;2023-04-24T07:00:10;12.60;99.90
70368;DHT22;57789;53.868;10.728;2023-04-24T07:02:36;12.60;99.90
70368;DHT22;57789;53.868;10.728;2023-04-24T07:05:03;12.60;99.90
70368;DHT22;57789;53.868;10.728;2023-04-24T07:07:29;12.70;99.90
70368;DHT22;57789;53.868;10.728;2023-04-24T07:09:55;12.70;99.90
70368;DHT22;57789;53.868;10.728;2023-04-24T07:12:21;12.80;99.90
70368;DHT22;57789;53.868;10.728;2023-04-24T07:14:47;12.80;99.90
70368;DHT22;57789;53.868;10.728;2023-04-24T07:17:14;12.90;99.90
70368;DHT22;57789;53.868;10.728;2023-04-24T07:19:40;12.90;99.90
70368;DHT22;57789;53.868;10.728;2023-04-24T07:22:06;12.90;99.90
70368;DHT22;57789;53.868;10.728;2023-04-24T07:24:31;13.00;99.90
70368;DHT22;57789;53.868;10.728;2023-04-24T07:26:58;13.00;99.90
70368;DHT22;57789;53.868;10.728;2023-04-24T07:29:24;13.10;99.90
70368;DHT22;57789;53.868;10.728;2023-04-24T07:31:50;13.10;99.90
70368;DHT22;57789;53.868;10.728;2023-04-24T07:34:16;13.10;99.90
70368;DHT22;57789;53.868;10.728;2023-04-24T07:36:42;13.20;99.90
70368;DHT22;57789;53.868;10.728;2023-04-24T07:39:08;13.20;99.90
70368;DHT22;57789;53.868;10.728;2023-04-24T07:41:34;13.20;99.90
70368;DHT22;57789;53.868;10.728;2023-04-24T07:44:00;13.20;99.90
70368;DHT22;57789;53.868;10.728;2023-04-24T07:46:26;13.30;99.90
70368;DHT22;57789;53.868;10.728;2023-04-24T07:48:55;13.30;99.90
70368;DHT22;57789;53.868;10.728;2023-04-24T07:51:21;13.30;99.90
70368;DHT22;57789;53.868;10.728;2023-04-24T07:53:47;13.40;99.90
70368;DHT22;57789;53.868;10.728;2023-04-24T07:56:13;13.50;99.90
70368;DHT22;57789;53.868;10.728;2023-04-24T07:58:38;13.70;99.90
70368;DHT22;57789;53.868;10.728;2023-04-24T08:01:04;13.80;99.90
70368;DHT22;57789;53.868;10.728;2023-04-24T08:03:30;13.80;99.90
70368;DHT22;57789;53.868;10.728;2023-04-24T08:05:56;14.00;99.90
70368;DHT22;57789;53.868;10.728;2023-04-24T08:08:22;14.00;99.90
70368;DHT22;57789;53.868;10.728;2023-04-24T08:10:49;14.00;99.90
70368;DHT22;57789;53.868;10.728;2023-04-24T08:13:14;14.00;99.90
70368;DHT22;57789;53.868;10.728;2023-04-24T08:15:40;14.00;99.90
70368;DHT22;57789;53.868;10.728;2023-04-24T08:18:07;14.00;99.90
70368;DHT22;57789;53.868;10.728;2023-04-24T08:20:32;14.20;99.90
70368;DHT22;57789;53.868;10.728;2023-04-24T08:22:58;14.40;99.90
70368;DHT22;57789;53.868;10.728;2023-04-24T08:25:24;14.50;99.90
70368;DHT22;57789;53.868;10.728;2023-04-24T08:27:50;14.50;99.90
70368;DHT22;57789;53.868;10.728;2023-04-24T08:30:16;14.40;99.90
70368;DHT22;57789;53.868;10.728;2023-04-24T08:32:42;14.40;99.90
70368;DHT22;57789;53.868;10.728;2023-04-24T08:35:08;14.40;99.90
70368;DHT22;57789;53.868;10.728;2023-04-24T08:37:35;14.40;99.90
70368;DHT22;57789;53.868;10.728;2023-04-24T08:40:05;14.50;99.90
70368;DHT22;57789;53.868;10.728;2023-04-24T08:42:33;14.50;99.90
70368;DHT22;57789;53.868;10.728;2023-04-24T08:44:59;14.60;99.90
70368;DHT22;57789;53.868;10.728;2023-04-24T08:47:27;14.60;99.90
70368;DHT22;57789;53.868;10.728;2023-04-24T08:49:54;14.60;99.90
70368;DHT22;57789;53.868;10.728;2023-04-24T08:52:21;14.70;99.90
70368;DHT22;57789;53.868;10.728;2023-04-24T08:54:47;14.80;99.90
70368;DHT22;57789;53.868;10.728;2023-04-24T08:57:14;15.00;99.90
70368;DHT22;57789;53.868;10.728;2023-04-24T08:59:40;15.10;99.90
70368;DHT22;57789;53.868;10.728;2023-04-24T09:02:10;15.30;99.90
70368;DHT22;57789;53.868;10.728;2023-04-24T09:04:37;15.20;99.90
70368;DHT22;57789;53.868;10.728;2023-04-24T09:07:04;15.20;99.90
70368;DHT22;57789;53.868;10.728;2023-04-24T09:09:32;15.20;99.90
70368;DHT22;57789;53.868;10.728;2023-04-24T09:11:58;15.30;99.90
70368;DHT22;57789;53.868;10.728;2023-04-24T09:14:25;15.30;99.90
70368;DHT22;57789;53.868;10.728;2023-04-24T09:16:51;15.30;99.90
70368;DHT22;57789;53.868;10.728;2023-04-24T09:19:17;15.20;99.90
70368;DHT22;57789;53.868;10.728;2023-04-24T09:21:46;15.30;99.90
70368;DHT22;57789;53.868;10.728;2023-04-24T09:24:19;15.50;99.90
70368;DHT22;57789;53.868;10.728;2023-04-24T09:26:48;16.00;99.90
70368;DHT22;57789;53.868;10.728;2023-04-24T09:29:15;16.00;99.90
70368;DHT22;57789;53.868;10.728;2023-04-24T09:31:42;15.90;99.90
70368;DHT22;57789;53.868;10.728;2023-04-24T09:34:10;15.90;99.90
70368;DHT22;57789;53.868;10.728;2023-04-24T09:36:39;16.10;99.90
70368;DHT22;57789;53.868;10.728;2023-04-24T09:39:12;16.40;99.90
70368;DHT22;57789;53.868;10.728;2023-04-24T09:41:55;16.70;99.90
70368;DHT22;57789;53.868;10.728;2023-04-24T09:44:26;17.30;99.90
70368;DHT22;57789;53.868;10.728;2023-04-24T09:46:57;17.50;99.90
70368;DHT22;57789;53.868;10.728;2023-04-24T09:49:28;17.40;99.90
70368;DHT22;57789;53.868;10.728;2023-04-24T09:52:08;17.50;99.90
70368;DHT22;57789;53.868;10.728;2023-04-24T09:54:35;17.80;99.90
70368;DHT22;57789;53.868;10.728;2023-04-24T09:57:02;17.80;99.90
70368;DHT22;57789;53.868;10.728;2023-04-24T09:59:29;17.70;99.90
70368;DHT22;57789;53.868;10.728;2023-04-24T10:01:55;17.50;99.90
70368;DHT22;57789;53.868;10.728;2023-04-24T10:04:23;17.10;99.90
70368;DHT22;57789;53.868;10.728;2023-04-24T10:06:51;17.20;99.90
70368;DHT22;57789;53.868;10.728;2023-04-24T10:09:19;17.40;99.90
70368;DHT22;57789;53.868;10.728;2023-04-24T10:11:47;17.40;99.90
70368;DHT22;57789;53.868;10.728;2023-04-24T10:14:22;17.00;99.90
70368;DHT22;57789;53.868;10.728;2023-04-24T10:16:48;16.20;99.90
70368;DHT22;57789;53.868;10.728;2023-04-24T10:19:15;15.90;99.90
70368;DHT22;57789;53.868;10.728;2023-04-24T10:21:43;15.60;99.90
70368;DHT22;57789;53.868;10.728;2023-04-24T10:24:16;15.10;99.90
70368;DHT22;57789;53.868;10.728;2023-04-24T10:26:43;14.90;99.90
70368;DHT22;57789;53.868;10.728;2023-04-24T10:29:11;14.90;99.90
70368;DHT22;57789;53.868;10.728;2023-04-24T10:31:38;14.90;99.90
70368;DHT22;57789;53.868;10.728;2023-04-24T10:34:06;14.90;99.90
70368;DHT22;57789;53.868;10.728;2023-04-24T10:36:33;15.10;99.90
70368;DHT22;57789;53.868;10.728;2023-04-24T10:39:02;15.40;99.90
70368;DHT22;57789;53.868;10.728;2023-04-24T10:41:31;15.80;99.90
70368;DHT22;57789;53.868;10.728;2023-04-24T10:44:11;16.10;99.90
70368;DHT22;57789;53.868;10.728;2023-04-24T10:46:37;16.10;99.90
70368;DHT22;57789;53.868;10.728;2023-04-24T10:49:05;15.90;99.90
70368;DHT22;57789;53.868;10.728;2023-04-24T10:51:50;15.70;99.90
70368;DHT22;57789;53.868;10.728;2023-04-24T10:54:45;15.60;99.90
70368;DHT22;57789;53.868;10.728;2023-04-24T11:02:39;16.40;99.90
70368;DHT22;57789;53.868;10.728;2023-04-24T11:05:09;16.30;99.90
70368;DHT22;57789;53.868;10.728;2023-04-24T11:08:11;16.50;99.90
70368;DHT22;57789;53.868;10.728;2023-04-24T11:10:55;16.50;99.90
70368;DHT22;57789;53.868;10.728;2023-04-24T11:13:24;16.70;99.90
70368;DHT22;57789;53.868;10.728;2023-04-24T11:16:32;16.80;99.90
70368;DHT22;57789;53.868;10.728;2023-04-24T11:19:03;16.50;99.90
70368;DHT22;57789;53.868;10.728;2023-04-24T11:21:43;16.70;99.90
70368;DHT22;57789;53.868;10.728;2023-04-24T11:26:50;17.00;99.90
70368;DHT22;57789;53.868;10.728;2023-04-24T11:29:20;17.50;99.90
70368;DHT22;57789;53.868;10.728;2023-04-24T11:31:50;17.70;99.90
70368;DHT22;57789;53.868;10.728;2023-04-24T11:34:17;17.90;99.90
70368;DHT22;57789;53.868;10.728;2023-04-24T11:36:45;17.70;99.90
70368;DHT22;57789;53.868;10.728;2023-04-24T11:39:13;17.40;99.90
70368;DHT22;57789;53.868;10.728;2023-04-24T11:41:39;17.60;99.90
70368;DHT22;57789;53.868;10.728;2023-04-24T11:44:06;17.90;99.90
70368;DHT22;57789;53.868;10.728;2023-04-24T11:46:32;17.80;99.90
70368;DHT22;57789;53.868;10.728;2023-04-24T11:48:59;17.10;99.90
70368;DHT22;57789;53.868;10.728;2023-04-24T11:51:27;17.10;99.90
70368;DHT22;57789;53.868;10.728;2023-04-24T11:53:56;16.90;99.90
70368;DHT22;57789;53.868;10.728;2023-04-24T11:56:25;16.90;99.90
70368;DHT22;57789;53.868;10.728;2023-04-24T11:58:54;16.70;99.90
70368;DHT22;57789;53.868;10.728;2023-04-24T12:01:22;17.10;99.90
70368;DHT22;57789;53.868;10.728;2023-04-24T12:03:49;17.50;99.90
70368;DHT22;57789;53.868;10.728;2023-04-24T12:06:17;17.70;99.90
70368;DHT22;57789;53.868;10.728;2023-04-24T12:08:46;18.10;99.90
70368;DHT22;57789;53.868;10.728;2023-04-24T12:11:15;18.40;99.90
70368;DHT22;57789;53.868;10.728;2023-04-24T12:13:41;18.20;99.90
70368;DHT22;57789;53.868;10.728;2023-04-24T12:16:07;18.10;99.90
70368;DHT22;57789;53.868;10.728;2023-04-24T12:18:33;17.70;99.90
70368;DHT22;57789;53.868;10.728;2023-04-24T12:21:18;17.30;99.90
70368;DHT22;57789;53.868;10.728;2023-04-24T12:23:45;17.60;99.90
70368;DHT22;57789;53.868;10.728;2023-04-24T12:26:12;17.40;99.90
70368;DHT22;57789;53.868;10.728;2023-04-24T12:28:38;17.40;99.90
70368;DHT22;57789;53.868;10.728;2023-04-24T12:31:06;17.50;99.90
70368;DHT22;57789;53.868;10.728;2023-04-24T12:33:34;17.40;99.90
70368;DHT22;57789;53.868;10.728;2023-04-24T12:36:01;17.30;99.90
70368;DHT22;57789;53.868;10.728;2023-04-24T12:38:28;17.70;99.90
70368;DHT22;57789;53.868;10.728;2023-04-24T12:41:10;17.70;99.90
70368;DHT22;57789;53.868;10.728;2023-04-24T12:43:36;17.70;99.90
70368;DHT22;57789;53.868;10.728;2023-04-24T12:46:02;17.40;99.90
70368;DHT22;57789;53.868;10.728;2023-04-24T12:48:29;17.00;99.90
70368;DHT22;57789;53.868;10.728;2023-04-24T12:50:58;16.70;99.90
70368;DHT22;57789;53.868;10.728;2023-04-24T12:53:27;16.50;99.90
70368;DHT22;57789;53.868;10.728;2023-04-24T12:55:53;16.60;99.90
70368;DHT22;57789;53.868;10.728;2023-04-24T12:58:20;16.70;99.90
70368;DHT22;57789;53.868;10.728;2023-04-24T13:00:46;16.50;99.90
70368;DHT22;57789;53.868;10.728;2023-04-24T13:03:13;16.30;99.90
70368;DHT22;57789;53.868;10.728;2023-04-24T13:05:39;16.10;99.90
70368;DHT22;57789;53.868;10.728;2023-04-24T13:08:05;16.20;99.90
70368;DHT22;57789;53.868;10.728;2023-04-24T13:10:31;16.10;99.90
70368;DHT22;57789;53.868;10.728;2023-04-24T13:12:57;16.60;99.90
70368;DHT22;57789;53.868;10.728;2023-04-24T13:15:22;17.00;99.90
70368;DHT22;57789;53.868;10.728;2023-04-24T13:17:49;17.50;99.90
70368;DHT22;57789;53.868;10.728;2023-04-24T13:20:15;18.20;99.90
70368;DHT22;57789;53.868;10.728;2023-04-24T13:22:40;18.30;99.90
70368;DHT22;57789;53.868;10.728;2023-04-24T13:25:06;18.40;99.90
70368;DHT22;57789;53.868;10.728;2023-04-24T13:27:33;18.40;99.90
70368;DHT22;57789;53.868;10.728;2023-04-24T13:29:58;18.20;99.90
70368;DHT22;57789;53.868;10.728;2023-04-24T13:32:24;17.90;99.90
70368;DHT22;57789;53.868;10.728;2023-04-24T13:34:50;17.50;99.90
70368;DHT22;57789;53.868;10.728;2023-04-24T13:37:16;17.00;99.90
70368;DHT22;57789;53.868;10.728;2023-04-24T13:39:42;16.80;99.90
70368;DHT22;57789;53.868;10.728;2023-04-24T13:42:08;16.50;99.90
70368;DHT22;57789;53.868;10.728;2023-04-24T13:44:34;16.60;99.90
70368;DHT22;57789;53.868;10.728;2023-04-24T13:47:00;16.50;99.90
70368;DHT22;57789;53.868;10.728;2023-04-24T13:49:26;16.40;99.90
70368;DHT22;57789;53.868;10.728;2023-04-24T13:51:54;16.20;99.90
70368;DHT22;57789;53.868;10.728;2023-04-24T13:54:20;16.20;99.90
70368;DHT22;57789;53.868;10.728;2023-04-24T13:56:46;16.20;99.90
70368;DHT22;57789;53.868;10.728;2023-04-24T13:59:12;16.30;99.90
70368;DHT22;57789;53.868;10.728;2023-04-24T14:01:38;15.90;99.90
70368;DHT22;57789;53.868;10.728;2023-04-24T14:04:05;15.50;99.90
70368;DHT22;57789;53.868;10.728;2023-04-24T14:06:30;15.40;99.90
70368;DHT22;57789;53.868;10.728;2023-04-24T14:08:56;15.30;99.90
70368;DHT22;57789;53.868;10.728;2023-04-24T14:11:22;15.10;99.90
70368;DHT22;57789;53.868;10.728;2023-04-24T14:13:48;15.00;99.90
70368;DHT22;57789;53.868;10.728;2023-04-24T14:16:14;15.00;99.90
70368;DHT22;57789;53.868;10.728;2023-04-24T14:18:40;15.00;99.90
70368;DHT22;57789;53.868;10.728;2023-04-24T14:21:06;14.70;99.90
70368;DHT22;57789;53.868;10.728;2023-04-24T14:23:32;14.70;99.90
70368;DHT22;57789;53.868;10.728;2023-04-24T14:25:58;14.60;99.90
70368;DHT22;57789;53.868;10.728;2023-04-24T14:28:24;14.40;99.90
70368;DHT22;57789;53.868;10.728;2023-04-24T14:30:51;14.10;99.90
70368;DHT22;57789;53.868;10.728;2023-04-24T14:33:17;13.90;99.90
70368;DHT22;57789;53.868;10.728;2023-04-24T14:35:44;13.30;99.90
70368;DHT22;57789;53.868;10.728;2023-04-24T14:38:10;12.90;99.90
70368;DHT22;57789;53.868;10.728;2023-04-24T14:40:36;12.50;99.90
70368;DHT22;57789;53.868;10.728;2023-04-24T14:43:02;12.50;99.90
70368;DHT22;57789;53.868;10.728;2023-04-24T14:45:28;12.60;99.90
70368;DHT22;57789;53.868;10.728;2023-04-24T14:47:57;12.70;99.90
70368;DHT22;57789;53.868;10.728;2023-04-24T14:50:23;13.20;99.90
70368;DHT22;57789;53.868;10.728;2023-04-24T14:52:49;13.30;99.90
70368;DHT22;57789;53.868;10.728;2023-04-24T14:55:15;13.40;99.90
70368;DHT22;57789;53.868;10.728;2023-04-24T14:57:41;13.40;99.90
70368;DHT22;57789;53.868;10.728;2023-04-24T15:00:08;13.50;99.90
70368;DHT22;57789;53.868;10.728;2023-04-24T15:02:38;13.50;99.90
70368;DHT22;57789;53.868;10.728;2023-04-24T15:05:07;13.70;99.90
70368;DHT22;57789;53.868;10.728;2023-04-24T15:07:33;13.70;99.90
70368;DHT22;57789;53.868;10.728;2023-04-24T15:10:01;13.70;99.90
70368;DHT22;57789;53.868;10.728;2023-04-24T15:12:27;13.60;99.90
70368;DHT22;57789;53.868;10.728;2023-04-24T15:14:54;13.70;99.90
70368;DHT22;57789;53.868;10.728;2023-04-24T15:17:21;13.70;99.90
70368;DHT22;57789;53.868;10.728;2023-04-24T15:19:47;13.60;99.90
70368;DHT22;57789;53.868;10.728;2023-04-24T15:22:13;13.50;99.90